Medina, Washington
Current Conditions -  °F | °C
As of 4:53 PM on Wednesday 22 Oct 2014 (Local Time) from KBFI Reporting Station
Light Rain Light Rain  
Wind Chill: 58°   Ceiling: 2300
Heat Index: 58°   Visibility: 9mi
Dew Point: 53°   Wind: 9mph
Humidity: 84%   Direction: 130°SE
Pressure: 29.61"   Gusts: NA
Location:  47.62°N, 122.23°W
Report Text: KBFI 222353Z 13008KT 9SM -RA BKN023 BKN075 OVC090 14/12 A2961 RMK AO2 SLP028 P0011 60047 T01440117 10150 20144 56023
Loading
Personal Weather Stations






























Interactive Weather Map
Tropical Storm Tracking
New forecast layout! Learn more

10-Day Weather Forecast

Advertisements
Track Severe Weather on mobile